createdAt,value
2018-12-02T21:26:36.246Z,67.40
2018-12-02T21:29:06.018Z,67.60
2018-12-02T21:31:35.956Z,67.60
2018-12-02T21:34:06.195Z,67.50
2018-12-02T21:36:36.130Z,67.60
2018-12-02T21:39:09.307Z,67.70
2018-12-02T21:41:39.581Z,67.80
2018-12-02T21:44:09.622Z,67.90
2018-12-02T21:46:39.763Z,67.90
2018-12-02T21:49:09.804Z,67.90
2018-12-02T21:51:39.840Z,67.90
2018-12-02T21:54:09.787Z,67.90
2018-12-02T21:56:40.953Z,68.00
2018-12-02T21:59:10.949Z,68.00
2018-12-02T22:01:41.067Z,68.00
2018-12-02T22:04:11.087Z,68.10
2018-12-02T22:06:41.153Z,68.10
2018-12-02T22:09:11.166Z,68.10
2018-12-02T22:11:41.345Z,68.10
2018-12-02T22:14:11.454Z,68.20
2018-12-02T22:16:41.396Z,68.20
2018-12-02T22:19:11.513Z,68.30
2018-12-02T22:21:41.447Z,68.30
2018-12-02T22:24:11.409Z,68.30
2018-12-02T22:26:41.349Z,68.30
2018-12-02T22:29:11.350Z,68.40
2018-12-02T22:31:41.181Z,68.50
2018-12-02T22:34:17.864Z,68.60
2018-12-02T22:36:47.845Z,68.70
2018-12-02T22:39:17.622Z,68.90
2018-12-02T22:41:47.521Z,69.00
2018-12-02T22:44:17.426Z,69.10
2018-12-02T22:46:47.263Z,69.20
2018-12-02T22:49:17.137Z,69.30
2018-12-02T22:51:46.968Z,69.20
2018-12-02T22:54:16.786Z,69.10
2018-12-02T22:56:46.698Z,69.10
2018-12-02T22:59:16.529Z,69.10
2018-12-02T23:01:51.244Z,69.10
2018-12-02T23:04:21.281Z,69.10
2018-12-02T23:06:51.246Z,69.10
2018-12-02T23:09:21.300Z,69.10
2018-12-02T23:11:51.277Z,69.00
2018-12-02T23:14:21.284Z,69.00
2018-12-02T23:17:01.998Z,68.90
2018-12-02T23:19:32.080Z,69.00
2018-12-02T23:22:02.119Z,69.00
2018-12-02T23:24:32.172Z,69.00
2018-12-02T23:27:02.132Z,69.00
2018-12-02T23:29:32.122Z,69.10
2018-12-02T23:32:02.122Z,69.20
2018-12-02T23:34:32.227Z,69.20
2018-12-02T23:37:02.245Z,69.20
2018-12-02T23:39:32.353Z,69.20
2018-12-02T23:42:02.238Z,69.20
2018-12-02T23:44:32.183Z,69.10
2018-12-02T23:47:02.064Z,69.10
2018-12-02T23:49:31.975Z,69.20
2018-12-02T23:52:01.961Z,69.20
2018-12-02T23:54:31.944Z,69.40
2018-12-02T23:57:01.905Z,69.40
2018-12-02T23:59:31.897Z,70.20
